Αρχική σελίδα
METAR-TAF:

METAR-TAF

Αεροδρόμια :

Tri-City Airport

Parsons, Κάνσας, Ηνωμένες Πολιτείες Αμερικής

γεωγραφικό πλάτος: 37-19-40N, γεωγραφικό μήκος: 095-30-15W, υψόμετρο: 274 μ

Παρών καιρός

Η αναφορά έγινε 52 λεπτά πριν, στις 00:52 UTC
Άνεμος 4 kt από Ν
Θερμοκρασία 14°C
Υγρασία 51%
Πίεση 1022 hPa
Ορατότητα: 16.1 χλμ
Καθαρός ουρανός

METAR: KPPF 220052Z AUTO 17004KT 10SM CLR 14/04 A3019 RMK AO2 SLP225 T01390039

Χρόνος: 20:44 (01:44 UTC)


TAF: λείπει

Μετεωρολογικές αναφορές και προγνώσεις για περισσότερα από 4000 αεροδρόμια (δελτία METAR και TAF).

Οι διαθέσιμοι σταθμοί απεικονίζονται στο χάρτη με κίτρινες και κόκκινες κουκκίδες.

Μετακινήστε το ποντίκι πάνω από τις κουκκίδες για να δείτε το όνομα του σταθμού.

Στη συνέχεια, κάντε κλικ για να δείτε τις μετεωρολογικές αναφορές και τις προγνώσεις καιρού.

Για να αλλάξετε το χάρτη: κάντε κλικ στα πράσινα κουμπιά με τον μαύρο σταυρό για να ζουμάρετε, στο πράσινο κουμπί με την παύλα για να αφαιρέσετε το ζουμ ή στα πράσινα βέλη για να αντιπαραβάλλετε χάρτες.


METAR-TAF: